createdAt,value
2022-09-05T00:01:58.136Z,12.03
2022-09-05T00:13:58.400Z,12.01
2022-09-05T00:25:58.577Z,12.00
2022-09-05T00:37:58.345Z,11.99
2022-09-05T00:49:58.346Z,11.98
2022-09-05T01:01:58.376Z,11.96
2022-09-05T01:13:58.355Z,11.94
2022-09-05T01:25:58.544Z,11.94
2022-09-05T01:37:57.903Z,11.92
2022-09-05T01:50:00.821Z,11.91
2022-09-05T02:01:57.904Z,11.89
2022-09-05T02:13:57.862Z,11.88
2022-09-05T02:26:02.841Z,11.87
2022-09-05T02:40:03.677Z,11.86
2022-09-05T02:52:02.185Z,11.84
2022-09-05T03:01:57.865Z,11.83
2022-09-05T03:13:57.862Z,11.82
2022-09-05T03:25:57.863Z,11.80
2022-09-05T03:37:57.871Z,11.80
2022-09-05T03:54:55.693Z,11.78
2022-09-05T04:04:58.983Z,11.76
2022-09-05T04:13:57.876Z,11.75
2022-09-05T04:26:09.308Z,11.73
2022-09-05T04:37:57.844Z,11.73
2022-09-05T04:49:58.312Z,11.72
2022-09-05T05:06:12.393Z,11.71
2022-09-05T05:17:57.935Z,11.70
2022-09-05T05:25:58.967Z,11.68
2022-09-05T05:37:57.870Z,11.69
2022-09-05T05:49:57.899Z,11.69
2022-09-05T06:01:58.037Z,11.70
2022-09-05T06:15:04.672Z,11.74
2022-09-05T06:25:57.863Z,11.75
2022-09-05T06:37:57.868Z,11.74
2022-09-05T06:49:57.889Z,11.81
2022-09-05T07:02:00.434Z,11.87
2022-09-05T07:13:57.891Z,11.97
2022-09-05T07:25:57.843Z,12.04
2022-09-05T07:37:57.877Z,12.12
2022-09-05T07:50:32.440Z,12.27
2022-09-05T08:01:57.869Z,12.37
2022-09-05T08:14:38.395Z,12.55
2022-09-05T08:25:58.006Z,12.65
2022-09-05T08:37:57.901Z,12.61
2022-09-05T08:49:57.847Z,12.62
2022-09-05T09:02:46.082Z,12.63
2022-09-05T09:13:57.878Z,12.62
2022-09-05T09:25:57.840Z,12.63
2022-09-05T09:37:59.623Z,12.63
2022-09-05T09:49:58.432Z,12.63
2022-09-05T10:02:24.000Z,12.63
2022-09-05T10:13:57.877Z,12.63
2022-09-05T10:26:01.419Z,12.63
2022-09-05T10:37:57.875Z,12.63
2022-09-05T10:49:57.888Z,12.63
2022-09-05T11:02:27.906Z,12.63
2022-09-05T11:13:58.159Z,12.63
2022-09-05T11:25:57.963Z,12.63
2022-09-05T11:39:59.171Z,12.64
2022-09-05T11:49:58.541Z,12.64
2022-09-05T12:01:57.888Z,12.63
2022-09-05T12:13:57.883Z,12.64
2022-09-05T12:27:40.540Z,12.65
2022-09-05T12:40:58.433Z,12.66
2022-09-05T12:50:02.722Z,12.66
2022-09-05T13:03:02.983Z,12.66
2022-09-05T13:14:54.910Z,12.68
2022-09-05T13:25:57.861Z,12.68
2022-09-05T13:38:28.938Z,12.67
2022-09-05T13:50:00.133Z,12.68
2022-09-05T14:02:26.866Z,12.68
2022-09-05T14:13:57.881Z,12.68
2022-09-05T14:25:57.872Z,12.69
2022-09-05T14:38:04.268Z,12.70
2022-09-05T14:49:57.880Z,12.71
2022-09-05T15:02:58.102Z,12.69
2022-09-05T15:13:58.647Z,12.73
2022-09-05T15:25:57.856Z,12.69
2022-09-05T15:37:57.868Z,12.67
2022-09-05T15:49:57.887Z,12.64
2022-09-05T16:01:59.245Z,12.63
2022-09-05T16:13:57.872Z,12.67
2022-09-05T16:25:57.967Z,12.65
2022-09-05T16:37:58.057Z,12.62
2022-09-05T16:49:58.828Z,12.58
2022-09-05T17:02:06.474Z,12.57
2022-09-05T17:13:58.036Z,12.57
2022-09-05T17:29:49.406Z,12.53
2022-09-05T17:38:11.010Z,12.52
2022-09-05T17:49:58.103Z,12.49
2022-09-05T18:01:58.066Z,12.48
2022-09-05T18:13:57.958Z,12.46
2022-09-05T18:25:57.993Z,12.44
2022-09-05T18:37:58.126Z,12.42
2022-09-05T18:50:24.786Z,12.40
2022-09-05T19:01:57.902Z,12.38
2022-09-05T19:14:25.504Z,12.37
2022-09-05T19:25:58.435Z,12.35
2022-09-05T19:37:58.918Z,12.34
2022-09-05T19:49:57.883Z,12.30
2022-09-05T20:01:57.903Z,12.29
2022-09-05T20:13:57.853Z,12.28
2022-09-05T20:25:57.887Z,12.27
2022-09-05T20:43:19.663Z,12.25
2022-09-05T20:54:09.636Z,12.24
2022-09-05T21:01:57.974Z,12.22
2022-09-05T21:13:57.847Z,12.20
2022-09-05T21:25:57.875Z,12.19
2022-09-05T21:37:57.868Z,12.18
2022-09-05T21:49:57.904Z,12.16
2022-09-05T22:01:58.096Z,12.14
2022-09-05T22:13:57.875Z,12.13
2022-09-05T22:25:57.842Z,12.11
2022-09-05T22:37:59.915Z,12.10
2022-09-05T22:49:57.826Z,12.08
2022-09-05T23:01:58.607Z,12.07
2022-09-05T23:13:57.987Z,12.06
2022-09-05T23:25:58.397Z,12.04
2022-09-05T23:37:58.126Z,12.02
2022-09-05T23:49:58.232Z,12.00
